Time;durP1;ratioP1;P1;durP2;ratioP2;P2;SDS_P1;SDS_P2;PMS_P1;PMS_P2;Temp;Humidity;BMP_temperature;BMP_pressure;BME280_temperature;BME280_humidity;BME280_pressure;Samples;Min_cycle;Max_cycle;Signal;HPM_P1;HPM_P2
2023/05/15 00:00:10;;;;;;;26.58;23.77;;;;;;;13.19;81.37;101297.09;3612653;39;20078;-68
2023/05/15 00:02:37;;;;;;;25.63;22.80;;;;;;;13.14;81.09;101286.59;3612986;39;20057;-68
2023/05/15 00:05:05;;;;;;;27.38;23.67;;;;;;;13.12;81.15;101291.22;3615065;39;20055;-69
2023/05/15 00:07:31;;;;;;;26.50;23.25;;;;;;;13.11;81.42;101288.63;3615536;39;20360;-69
2023/05/15 00:09:56;;;;;;;28.92;23.50;;;;;;;12.99;81.12;101274.97;3615704;39;20046;-69
2023/05/15 00:12:22;;;;;;;25.85;23.23;;;;;;;12.66;81.40;101229.44;3615375;39;20066;-69
2023/05/15 00:14:47;;;;;;;25.77;22.98;;;;;;;13.04;80.89;101276.50;3613732;39;20059;-69
2023/05/15 00:17:13;;;;;;;27.83;24.45;;;;;;;12.99;81.04;101268.69;3612691;39;20047;-70
2023/05/15 00:19:38;;;;;;;27.65;24.25;;;;;;;13.02;81.23;101276.59;3614232;39;20298;-68
2023/05/15 00:22:04;;;;;;;30.58;24.65;;;;;;;12.99;81.00;101290.28;3613995;39;20055;-68
2023/05/15 00:24:30;;;;;;;27.70;24.52;;;;;;;12.93;80.94;101280.75;3612799;39;20051;-69
2023/05/15 00:26:56;;;;;;;27.90;24.25;;;;;;;12.89;81.57;101281.06;3612128;39;20054;-68
2023/05/15 00:29:22;;;;;;;28.75;25.65;;;;;;;12.83;81.89;101284.16;3613153;39;20408;-68
2023/05/15 00:31:48;;;;;;;27.98;24.95;;;;;;;12.80;81.45;101266.31;3615153;39;20314;-68
2023/05/15 00:34:13;;;;;;;28.25;25.30;;;;;;;12.74;81.50;101264.00;3619401;39;20053;-68
2023/05/15 00:36:39;;;;;;;28.90;25.55;;;;;;;12.52;81.86;101245.63;3615708;39;20285;-69
2023/05/15 00:39:05;;;;;;;28.77;25.77;;;;;;;12.70;81.47;101271.44;3613463;39;20057;-68
2023/05/15 00:41:34;;;;;;;27.90;24.98;;;;;;;12.70;82.16;101262.47;3613661;39;20046;-68
2023/05/15 00:44:01;;;;;;;29.70;25.77;;;;;;;12.67;81.83;101270.78;3609216;39;20047;-68
2023/05/15 00:46:30;;;;;;;29.95;25.95;;;;;;;12.53;81.51;101239.28;3617841;39;20085;-68
2023/05/15 00:48:57;;;;;;;31.50;26.15;;;;;;;12.60;81.81;101266.75;3617275;39;20058;-68
2023/05/15 00:51:24;;;;;;;28.45;25.48;;;;;;;12.52;82.21;101257.28;3615872;39;20055;-68
2023/05/15 00:53:52;;;;;;;30.15;25.98;;;;;;;12.44;81.22;101242.56;3616179;39;20066;-69
2023/05/15 00:56:18;;;;;;;28.65;25.65;;;;;;;12.50;81.96;101259.22;3613426;39;20055;-68
2023/05/15 00:58:49;;;;;;;29.33;26.08;;;;;;;12.48;81.40;101260.28;3613659;39;20047;-68
2023/05/15 01:01:16;;;;;;;29.75;26.35;;;;;;;12.44;81.27;101261.44;3615271;39;20502;-68
2023/05/15 01:03:43;;;;;;;29.88;26.67;;;;;;;12.30;82.08;101244.31;3617489;39;20476;-68
2023/05/15 01:06:10;;;;;;;31.35;27.48;;;;;;;12.36;81.86;101263.75;3614705;39;20063;-68
2023/05/15 01:08:45;;;;;;;31.98;26.55;;;;;;;12.32;82.04;101247.75;3614113;39;20049;-68
2023/05/15 01:11:16;;;;;;;30.38;27.17;;;;;;;12.30;81.94;101248.81;3615144;39;20054;-68
2023/05/15 01:13:42;;;;;;;29.92;26.67;;;;;;;11.98;81.91;101194.22;3614074;39;20408;-68
2023/05/15 01:16:09;;;;;;;32.85;26.75;;;;;;;12.27;82.07;101239.09;3613273;39;20278;-68
2023/05/15 01:18:36;;;;;;;33.22;27.70;;;;;;;12.27;81.97;101247.19;3613259;39;20394;-69
2023/05/15 01:21:04;;;;;;;34.78;27.50;;;;;;;12.22;82.06;101252.00;3616540;39;20092;-68
2023/05/15 01:24:07;;;;;;;32.55;27.00;;;;;;;12.19;82.18;101252.19;3616873;39;20050;-68
2023/05/15 01:27:03;;;;;;;31.25;26.83;;;;;;;12.19;82.62;101246.78;3616248;39;20405;-69
2023/05/15 01:30:12;;;;;;;31.13;27.58;;;;;;;12.17;82.71;101247.84;3614696;39;20051;-68
2023/05/15 01:33:09;;;;;;;31.42;27.50;;;;;;;12.12;82.10;101245.44;3615735;39;20055;-69
2023/05/15 01:36:04;;;;;;;30.67;27.17;;;;;;;12.08;82.58;101238.47;3613298;39;20046;-69
2023/05/15 01:38:45;;;;;;;33.42;27.63;;;;;;;12.09;82.39;101234.84;3616256;39;20078;-68
2023/05/15 01:41:25;;;;;;;32.30;28.33;;;;;;;12.06;83.26;101240.44;3614612;39;20086;-69
2023/05/15 01:44:25;;;;;;;34.00;28.48;;;;;;;12.03;83.06;101233.41;3615696;39;20059;-68
2023/05/15 01:46:59;;;;;;;33.20;28.92;;;;;;;12.03;82.58;101237.91;3614247;39;20063;-69
2023/05/15 01:49:31;;;;;;;34.92;29.75;;;;;;;12.01;82.61;101235.31;3612821;39;20123;-69
2023/05/15 01:52:24;;;;;;;33.72;30.08;;;;;;;11.94;83.21;101225.00;3615140;39;20055;-69
2023/05/15 01:54:51;;;;;;;31.60;28.05;;;;;;;11.97;82.44;101225.69;3612666;39;20313;-69
2023/05/15 01:57:21;;;;;;;32.58;29.13;;;;;;;11.95;83.03;101226.72;3613071;39;20051;-69
2023/05/15 01:59:49;;;;;;;34.28;30.48;;;;;;;11.93;82.65;101225.97;3614421;39;20105;-68
2023/05/15 02:02:18;;;;;;;35.45;29.70;;;;;;;11.93;82.87;101223.28;3616168;39;20054;-69
2023/05/15 02:04:45;;;;;;;33.92;30.27;;;;;;;11.91;83.61;101217.97;3613391;39;21111;-69
2023/05/15 02:07:14;;;;;;;34.75;29.33;;;;;;;11.29;83.00;101115.81;3615616;39;20051;-68
2023/05/15 02:09:43;;;;;;;32.97;29.48;;;;;;;11.93;83.21;101213.38;3616564;39;20142;-69
2023/05/15 02:12:10;;;;;;;34.40;29.88;;;;;;;11.87;82.95;101204.81;3612332;39;20399;-68
2023/05/15 02:14:40;;;;;;;35.22;30.15;;;;;;;11.93;83.30;101212.50;3614833;39;20312;-68
2023/05/15 02:17:06;;;;;;;34.38;29.60;;;;;;;11.92;83.08;101216.16;3614824;39;20057;-69
2023/05/15 02:19:32;;;;;;;34.50;30.00;;;;;;;11.93;83.56;101217.91;3613585;39;20055;-69
2023/05/15 02:21:58;;;;;;;33.92;30.10;;;;;;;11.75;83.00;101196.47;3614089;39;20143;-68
2023/05/15 02:24:23;;;;;;;34.65;30.88;;;;;;;11.88;83.56;101220.84;3609720;39;20054;-69
2023/05/15 02:27:26;;;;;;;36.22;30.60;;;;;;;11.90;83.31;101220.78;3611553;39;20062;-69
2023/05/15 02:29:57;;;;;;;35.83;30.83;;;;;;;11.91;83.22;101217.97;3615206;39;20127;-69
2023/05/15 02:32:55;;;;;;;36.03;30.98;;;;;;;11.72;82.66;101198.47;3612870;39;20102;-69
2023/05/15 02:36:05;;;;;;;37.33;32.63;;;;;;;11.87;83.22;101223.66;3614695;39;20055;-69
2023/05/15 02:38:47;;;;;;;36.63;32.03;;;;;;;11.83;83.43;101237.28;3612304;39;20457;-69
2023/05/15 02:41:16;;;;;;;38.55;33.88;;;;;;;11.82;83.26;101237.34;3614579;39;20492;-69
2023/05/15 02:43:44;;;;;;;38.53;33.63;;;;;;;11.81;83.26;101241.88;3612913;39;20054;-68
2023/05/15 02:46:13;;;;;;;40.72;34.78;;;;;;;11.81;83.45;101236.50;3614885;39;20066;-69
2023/05/15 02:48:42;;;;;;;42.30;35.47;;;;;;;11.80;83.69;101239.28;3617318;39;20055;-68
2023/05/15 02:51:08;;;;;;;42.50;35.08;;;;;;;11.77;83.34;101234.94;3615385;39;20090;-69
2023/05/15 02:53:40;;;;;;;43.80;36.42;;;;;;;11.73;83.19;101240.59;3612164;39;20059;-68
2023/05/15 02:56:06;;;;;;;44.97;35.55;;;;;;;11.70;83.65;101228.19;3613928;39;20073;-68
2023/05/15 02:58:33;;;;;;;41.38;36.15;;;;;;;11.68;84.41;101230.13;3617678;39;20092;-68
2023/05/15 03:00:59;;;;;;;40.50;35.42;;;;;;;11.65;83.66;101230.31;3621149;39;20671;-69
2023/05/15 03:03:25;;;;;;;41.75;37.03;;;;;;;11.63;83.87;101221.44;3618176;39;20046;-69
2023/05/15 03:05:51;;;;;;;41.85;35.75;;;;;;;11.63;84.50;101227.69;3616672;39;20298;-69
2023/05/15 03:08:18;;;;;;;41.95;35.85;;;;;;;11.57;84.49;101221.81;3615059;39;20057;-69
2023/05/15 03:10:44;;;;;;;46.50;37.65;;;;;;;11.58;84.50;101220.88;3615343;39;20057;-69
2023/05/15 03:13:10;;;;;;;42.95;36.92;;;;;;;11.38;84.52;101189.72;3612779;39;20046;-69
2023/05/15 03:15:35;;;;;;;42.50;37.13;;;;;;;11.52;84.05;101229.31;3616250;39;20063;-68
2023/05/15 03:18:01;;;;;;;45.35;37.25;;;;;;;11.42;84.56;101203.84;3617983;39;20062;-68
2023/05/15 03:20:27;;;;;;;45.03;36.90;;;;;;;11.44;84.36;101215.41;3609296;39;20062;-68
2023/05/15 03:22:53;;;;;;;47.95;37.83;;;;;;;11.45;85.03;101223.41;3617106;39;20078;-65
2023/05/15 03:25:18;;;;;;;46.60;37.33;;;;;;;11.43;84.99;101222.63;3612508;39;20054;-67
2023/05/15 03:27:44;;;;;;;47.17;38.45;;;;;;;11.41;84.23;101220.97;3604203;39;20263;-67
2023/05/15 03:30:10;;;;;;;44.30;37.85;;;;;;;11.35;84.36;101209.63;3613324;39;20067;-67
2023/05/15 03:32:35;;;;;;;50.03;38.95;;;;;;;11.37;84.25;101215.78;3615329;39;20043;-66
2023/05/15 03:35:01;;;;;;;46.45;38.60;;;;;;;11.34;85.16;101215.97;3619050;39;20042;-66
2023/05/15 03:37:27;;;;;;;47.63;38.05;;;;;;;11.34;84.90;101209.72;3615234;39;20123;-66
2023/05/15 03:39:53;;;;;;;46.97;38.15;;;;;;;11.31;84.89;101209.88;3613154;39;20051;-66
2023/05/15 03:42:22;;;;;;;48.15;40.28;;;;;;;11.29;84.69;101207.31;3601221;39;20381;-66
2023/05/15 03:44:52;;;;;;;48.40;39.47;;;;;;;11.27;84.61;101200.28;3609296;39;20061;-66
2023/05/15 03:47:18;;;;;;;49.65;39.55;;;;;;;11.23;85.34;101202.28;3613553;39;20139;-67
2023/05/15 03:49:45;;;;;;;51.40;40.55;;;;;;;11.20;85.58;101202.47;3613967;39;20054;-67
2023/05/15 03:52:11;;;;;;;49.60;39.72;;;;;;;10.82;85.13;101143.69;3617616;39;20484;-67
2023/05/15 03:54:37;;;;;;;51.00;39.88;;;;;;;11.18;84.99;101204.34;3613757;39;20055;-67
2023/05/15 03:57:03;;;;;;;48.97;39.58;;;;;;;11.16;85.48;101195.50;3616820;39;20043;-66
2023/05/15 03:59:30;;;;;;;49.75;39.55;;;;;;;11.12;84.80;101200.19;3618539;39;20457;-66
2023/05/15 04:01:55;;;;;;;50.30;40.95;;;;;;;11.11;85.03;101200.31;3621591;39;20055;-65
2023/05/15 04:04:21;;;;;;;53.63;41.78;;;;;;;10.96;85.47;101187.72;3620875;39;20540;-65
2023/05/15 04:06:47;;;;;;;50.55;40.58;;;;;;;11.11;86.17;101195.78;3619310;39;20735;-65
2023/05/15 04:09:12;;;;;;;50.72;41.17;;;;;;;11.08;85.50;101203.16;3617827;39;20055;-65
2023/05/15 04:11:38;;;;;;;51.72;40.97;;;;;;;11.06;85.15;101197.00;3616112;39;20046;-65
2023/05/15 04:14:03;;;;;;;52.63;41.13;;;;;;;11.05;86.19;101197.97;3616579;39;20057;-66
2023/05/15 04:16:29;;;;;;;57.25;42.80;;;;;;;11.03;86.31;101195.34;3613511;39;20325;-66
2023/05/15 04:18:54;;;;;;;52.10;41.15;;;;;;;11.04;86.05;101201.63;3617407;39;20294;-66
2023/05/15 04:21:20;;;;;;;54.08;41.58;;;;;;;11.04;86.46;101198.94;3616400;39;20066;-66
2023/05/15 04:23:46;;;;;;;54.85;42.28;;;;;;;11.03;86.52;101194.47;3617125;39;20054;-65
2023/05/15 04:26:11;;;;;;;53.67;43.35;;;;;;;10.83;86.69;101161.53;3618078;39;20066;-65
2023/05/15 04:28:37;;;;;;;54.92;43.78;;;;;;;10.98;86.67;101193.91;3616082;39;20065;-65
2023/05/15 04:31:03;;;;;;;58.50;43.00;;;;;;;10.96;87.22;101193.97;3616159;39;20497;-66
2023/05/15 04:33:28;;;;;;;60.83;45.38;;;;;;;10.96;86.91;101215.50;3617202;39;20053;-66
2023/05/15 04:35:54;;;;;;;55.05;44.58;;;;;;;10.97;87.71;101216.34;3619822;39;20070;-66
2023/05/15 04:38:20;;;;;;;56.58;45.40;;;;;;;10.83;87.64;101192.94;3616829;39;20098;-65
2023/05/15 04:40:45;;;;;;;57.72;44.90;;;;;;;10.85;87.79;101197.28;3618302;39;20381;-66
2023/05/15 04:43:11;;;;;;;60.85;45.63;;;;;;;11.01;87.24;101226.88;3604569;39;20051;-66
2023/05/15 04:45:37;;;;;;;60.35;45.78;;;;;;;11.03;87.51;101226.75;3614538;39;20059;-66
2023/05/15 04:48:03;;;;;;;59.40;47.08;;;;;;;11.03;87.44;101230.31;3618524;39;20051;-65
2023/05/15 04:50:28;;;;;;;55.45;43.78;;;;;;;11.06;87.00;101234.66;3615406;39;20396;-65
2023/05/15 04:52:54;;;;;;;57.88;46.00;;;;;;;11.06;87.09;101234.66;3617225;39;20062;-66
2023/05/15 04:55:20;;;;;;;59.42;46.47;;;;;;;11.06;86.62;101230.13;3618443;39;20054;-65
2023/05/15 04:57:46;;;;;;;55.80;46.63;;;;;;;11.14;87.64;101230.59;3615234;39;20482;-65
2023/05/15 05:00:13;;;;;;;57.13;45.45;;;;;;;11.19;86.48;101230.31;3618072;39;20435;-65
2023/05/15 05:02:40;;;;;;;54.42;44.28;;;;;;;11.22;87.24;101226.56;3615138;39;20466;-66
2023/05/15 05:05:07;;;;;;;57.97;45.78;;;;;;;11.33;87.28;101230.38;3616587;39;20062;-64
2023/05/15 05:07:33;;;;;;;56.15;46.50;;;;;;;11.40;86.58;101230.88;3614432;39;20062;-64
2023/05/15 05:09:59;;;;;;;60.70;47.08;;;;;;;11.46;85.82;101229.66;3616479;39;20405;-65
2023/05/15 05:12:24;;;;;;;62.35;48.97;;;;;;;11.50;85.75;101237.44;3614295;39;20088;-65
2023/05/15 05:14:50;;;;;;;65.68;46.47;;;;;;;11.51;85.74;101239.22;3614449;39;20066;-65
2023/05/15 05:17:16;;;;;;;66.30;47.55;;;;;;;11.50;85.83;101241.97;3614290;39;20055;-65
2023/05/15 05:19:44;;;;;;;62.25;46.33;;;;;;;11.39;86.70;101230.03;3614765;39;20058;-65
2023/05/15 05:22:10;;;;;;;60.47;46.90;;;;;;;11.52;85.75;101242.75;3616290;39;20126;-65
2023/05/15 05:24:36;;;;;;;64.85;48.05;;;;;;;11.53;86.49;101241.78;3614323;39;20277;-65
2023/05/15 05:27:03;;;;;;;63.80;47.20;;;;;;;11.53;85.93;101239.97;3613678;39;20499;-65
2023/05/15 05:29:29;;;;;;;62.00;47.13;;;;;;;11.26;86.40;101204.78;3605326;39;20043;-65
2023/05/15 05:31:55;;;;;;;61.65;46.22;;;;;;;11.63;86.48;101261.81;3614655;39;20054;-65
2023/05/15 05:34:21;;;;;;;57.28;43.80;;;;;;;11.30;85.21;101206.34;3615601;39;20051;-64
2023/05/15 05:36:48;;;;;;;56.38;43.00;;;;;;;11.61;85.11;101261.94;3614132;39;20067;-64
2023/05/15 05:39:15;;;;;;;57.97;45.25;;;;;;;11.66;85.18;101266.16;3617068;39;20324;-65
2023/05/15 05:41:41;;;;;;;57.80;44.33;;;;;;;11.66;85.61;101256.25;3614835;39;20066;-64
2023/05/15 05:44:07;;;;;;;55.90;42.38;;;;;;;11.68;85.31;101273.22;3614498;39;20490;-64
2023/05/15 05:46:33;;;;;;;52.72;41.60;;;;;;;11.73;84.09;101278.31;3613715;39;20098;-65
2023/05/15 05:48:59;;;;;;;49.80;38.70;;;;;;;11.74;83.69;101280.06;3616684;39;20050;-67
2023/05/15 05:51:24;;;;;;;48.33;38.22;;;;;;;11.75;83.93;101271.00;3613811;39;20168;-64
2023/05/15 05:53:50;;;;;;;46.00;37.53;;;;;;;11.74;82.99;101270.16;3615789;39;20089;-65
2023/05/15 05:56:16;;;;;;;47.90;34.85;;;;;;;11.77;81.85;101272.66;3612990;39;20102;-66
2023/05/15 05:58:42;;;;;;;43.45;34.40;;;;;;;11.79;81.96;101265.34;3615008;39;20046;-66
2023/05/15 06:01:07;;;;;;;43.05;35.25;;;;;;;11.88;81.80;101268.47;3617354;39;20046;-65
2023/05/15 06:03:34;;;;;;;49.38;34.60;;;;;;;11.90;81.99;101282.75;3606722;39;20051;-65
2023/05/15 06:05:59;;;;;;;43.70;35.45;;;;;;;11.96;82.37;101271.59;3614554;39;20050;-65
2023/05/15 06:08:27;;;;;;;45.15;34.08;;;;;;;12.01;81.37;101272.16;3614901;39;20058;-66
2023/05/15 06:10:53;;;;;;;47.60;33.13;;;;;;;12.07;80.76;101269.97;3615900;39;20324;-65
2023/05/15 06:13:18;;;;;;;37.75;30.85;;;;;;;12.12;79.87;101267.00;3615420;39;20055;-66
2023/05/15 06:15:45;;;;;;;36.03;30.70;;;;;;;12.23;79.90;101269.03;3616727;39;20065;-65
2023/05/15 06:18:10;;;;;;;40.65;31.42;;;;;;;12.29;79.40;101277.59;3617438;39;20118;-65
2023/05/15 06:20:37;;;;;;;40.13;31.88;;;;;;;12.34;78.54;101273.75;3615872;39;20063;-66
2023/05/15 06:23:02;;;;;;;36.20;31.25;;;;;;;12.37;78.64;101274.44;3616887;39;20050;-66
2023/05/15 06:25:28;;;;;;;35.45;30.48;;;;;;;12.43;78.35;101275.88;3615281;39;20404;-66
2023/05/15 06:27:54;;;;;;;37.38;29.63;;;;;;;12.28;77.51;101250.75;3617767;39;20054;-66
2023/05/15 06:30:20;;;;;;;36.50;29.92;;;;;;;12.50;77.22;101279.94;3615041;39;20063;-66
2023/05/15 06:32:45;;;;;;;32.65;29.10;;;;;;;12.55;77.01;101280.50;3619883;39;20154;-64
2023/05/15 06:35:11;;;;;;;33.17;29.02;;;;;;;12.61;76.29;101282.81;3615799;39;20340;-67
2023/05/15 06:37:37;;;;;;;34.83;28.92;;;;;;;12.64;76.39;101281.75;3617801;39;20050;-67
2023/05/15 06:40:05;;;;;;;33.25;28.67;;;;;;;12.65;76.14;101281.63;3615167;39;20077;-67
2023/05/15 06:42:30;;;;;;;33.22;28.75;;;;;;;12.67;76.33;101274.34;3613699;39;20054;-66
2023/05/15 06:44:56;;;;;;;34.70;30.42;;;;;;;12.58;75.97;101253.34;3614024;39;20066;-66
2023/05/15 06:47:22;;;;;;;31.95;28.45;;;;;;;12.69;74.86;101269.72;3619226;39;20293;-67
2023/05/15 06:49:47;;;;;;;32.92;28.73;;;;;;;12.50;75.06;101223.31;3616518;39;20057;-66
2023/05/15 06:52:13;;;;;;;34.75;28.80;;;;;;;12.91;75.37;101271.91;3614364;39;20059;-66
2023/05/15 06:54:40;;;;;;;33.05;29.10;;;;;;;13.07;75.25;101268.22;3617252;39;20288;-66
2023/05/15 06:57:06;;;;;;;36.65;29.02;;;;;;;12.96;73.89;101220.31;3614504;39;20278;-65
2023/05/15 06:59:34;;;;;;;35.38;27.65;;;;;;;13.38;73.57;101269.78;3613042;39;20066;-65
2023/05/15 07:02:01;;;;;;;32.92;29.35;;;;;;;13.43;72.38;101264.94;3617623;39;20046;-65
2023/05/15 07:04:26;;;;;;;31.90;28.60;;;;;;;13.47;72.02;101270.03;3612846;39;20046;-65
2023/05/15 07:06:52;;;;;;;35.05;29.58;;;;;;;13.47;71.48;101269.16;3616849;39;20081;-65
2023/05/15 07:09:17;;;;;;;34.85;31.08;;;;;;;13.45;71.63;101266.56;3616549;39;20424;-65
2023/05/15 07:11:43;;;;;;;39.58;29.60;;;;;;;13.50;70.87;101266.25;3615419;39;20058;-66
2023/05/15 07:14:09;;;;;;;41.42;32.22;;;;;;;13.66;71.60;101271.50;3619795;39;20051;-66
2023/05/15 07:16:34;;;;;;;35.88;31.98;;;;;;;13.96;70.23;101270.38;3615234;39;20051;-65
2023/05/15 07:19:00;;;;;;;37.78;33.67;;;;;;;14.21;71.35;101265.00;3618835;39;20069;-67
2023/05/15 07:21:25;;;;;;;35.83;31.42;;;;;;;14.49;69.03;101268.44;3614689;39;20080;-65
2023/05/15 07:23:51;;;;;;;35.08;31.45;;;;;;;14.63;67.10;101271.94;3616555;39;20081;-65
2023/05/15 07:26:17;;;;;;;36.72;32.92;;;;;;;14.75;65.74;101253.97;3615882;39;20073;-65
2023/05/15 07:28:42;;;;;;;38.08;34.08;;;;;;;15.00;66.34;101255.75;3617520;39;20042;-64
2023/05/15 07:31:08;;;;;;;36.53;32.65;;;;;;;15.26;65.16;101263.78;3612927;39;20303;-65
2023/05/15 07:33:33;;;;;;;38.00;34.03;;;;;;;15.48;64.99;101266.59;3614271;39;20051;-65
2023/05/15 07:36:00;;;;;;;39.55;33.10;;;;;;;15.64;64.19;101254.59;3618507;39;20393;-65
2023/05/15 07:38:25;;;;;;;36.13;32.35;;;;;;;15.88;63.65;101255.44;3614166;39;20093;-65
2023/05/15 07:40:51;;;;;;;36.38;32.80;;;;;;;16.17;63.80;101255.00;3617674;39;20066;-64
2023/05/15 07:43:17;;;;;;;36.15;32.50;;;;;;;16.28;62.53;101251.47;3612782;39;20112;-65
2023/05/15 07:45:42;;;;;;;33.55;30.13;;;;;;;16.36;60.60;101259.84;3605081;39;20061;-65
2023/05/15 07:48:19;;;;;;;31.95;28.75;;;;;;;16.31;58.21;101233.09;3612521;39;20089;-65
2023/05/15 07:50:46;;;;;;;35.70;32.10;;;;;;;16.69;59.44;101259.03;3615111;39;20069;-66
2023/05/15 07:53:15;;;;;;;37.20;33.40;;;;;;;16.74;57.83;101259.50;3612529;39;20136;-65
2023/05/15 07:55:42;;;;;;;38.53;34.63;;;;;;;16.64;59.68;101253.09;3617986;39;20157;-65
2023/05/15 07:58:08;;;;;;;39.28;34.83;;;;;;;16.64;60.75;101240.38;3617912;39;20077;-65
2023/05/15 08:00:35;;;;;;;39.25;35.13;;;;;;;16.66;58.99;101248.41;3613721;39;20059;-65
2023/05/15 08:03:01;;;;;;;39.47;35.45;;;;;;;16.78;61.38;101247.44;3612961;39;20046;-65
2023/05/15 08:05:27;;;;;;;39.03;35.15;;;;;;;16.85;61.48;101229.66;3609881;39;20050;-64
2023/05/15 08:07:53;;;;;;;37.83;34.03;;;;;;;16.93;59.28;101248.88;3616205;39;20046;-64
2023/05/15 08:10:19;;;;;;;39.15;35.10;;;;;;;17.07;60.47;101244.19;3609047;39;20065;-64
2023/05/15 08:12:46;;;;;;;39.72;35.88;;;;;;;17.24;60.55;101248.22;3613335;39;20051;-64
2023/05/15 08:15:12;;;;;;;39.05;35.15;;;;;;;17.38;58.83;101247.94;3602150;39;20067;-65
2023/05/15 08:17:38;;;;;;;39.72;35.80;;;;;;;17.46;57.97;101244.56;3614542;39;20054;-65
2023/05/15 08:20:04;;;;;;;38.35;34.33;;;;;;;17.60;57.52;101246.97;3613471;39;20363;-64
2023/05/15 08:22:30;;;;;;;34.83;31.20;;;;;;;17.76;55.28;101250.13;3613618;39;20059;-65
2023/05/15 08:24:59;;;;;;;37.00;33.38;;;;;;;17.98;55.98;101251.91;3614797;39;20058;-64
2023/05/15 08:27:25;;;;;;;38.80;34.60;;;;;;;18.09;54.50;101254.53;3614740;39;20043;-65
2023/05/15 08:29:51;;;;;;;38.22;34.08;;;;;;;17.60;55.72;101152.72;3617614;39;20388;-65
2023/05/15 08:32:17;;;;;;;36.20;32.50;;;;;;;18.26;54.90;101254.94;3615582;39;20074;-66
2023/05/15 08:34:43;;;;;;;35.45;31.33;;;;;;;18.19;53.59;101251.88;3618563;39;20119;-66
2023/05/15 08:37:09;;;;;;;33.28;29.73;;;;;;;18.12;52.29;101242.53;3612461;39;20058;-64
2023/05/15 08:39:35;;;;;;;35.63;32.05;;;;;;;18.22;54.52;101246.19;3614523;39;20411;-65
2023/05/15 08:42:13;;;;;;;35.17;31.48;;;;;;;18.37;54.50;101256.72;3615808;39;20074;-65
2023/05/15 08:44:40;;;;;;;35.35;31.75;;;;;;;18.52;53.59;101249.91;3605070;39;20067;-65
2023/05/15 08:47:06;;;;;;;35.92;32.22;;;;;;;18.43;53.64;101246.16;3611496;39;20058;-65
2023/05/15 08:50:13;;;;;;;35.15;31.73;;;;;;;18.39;54.75;101244.69;3614024;39;20072;-65
2023/05/15 08:52:45;;;;;;;37.47;31.63;;;;;;;18.07;54.95;101220.31;3610392;39;20089;-65
2023/05/15 08:55:14;;;;;;;34.65;31.08;;;;;;;18.11;55.30;101254.44;3614985;39;20071;-65
2023/05/15 08:57:41;;;;;;;33.63;30.38;;;;;;;18.08;55.47;101247.38;3616296;39;20106;-65
2023/05/15 09:00:08;;;;;;;34.35;30.75;;;;;;;18.18;55.02;101247.44;3617767;39;20066;-65
2023/05/15 09:02:38;;;;;;;33.13;29.75;;;;;;;18.38;53.55;101247.56;3619102;39;20047;-65
2023/05/15 09:05:05;;;;;;;32.92;29.35;;;;;;;18.50;53.27;101224.69;3616334;39;20049;-65
2023/05/15 09:07:32;;;;;;;30.65;27.65;;;;;;;19.01;51.78;101248.28;3617527;39;20403;-65
2023/05/15 09:10:00;;;;;;;30.58;27.25;;;;;;;19.36;52.63;101255.94;3615758;39;20055;-65
2023/05/15 09:12:26;;;;;;;30.60;27.40;;;;;;;19.60;50.28;101247.38;3614890;39;20054;-64
2023/05/15 09:15:16;;;;;;;33.08;28.80;;;;;;;19.61;52.46;101238.16;3608724;39;20043;-66
2023/05/15 09:17:44;;;;;;;31.00;27.77;;;;;;;19.59;50.17;101245.63;3614217;39;20039;-66
2023/05/15 09:20:33;;;;;;;31.75;27.67;;;;;;;19.55;52.12;101246.94;3614646;39;20050;-66
2023/05/15 09:23:02;;;;;;;30.92;27.80;;;;;;;19.59;52.16;101240.16;3615936;39;20127;-65
2023/05/15 09:25:51;;;;;;;31.60;28.25;;;;;;;19.46;51.91;101240.44;3616281;39;20055;-66
2023/05/15 09:28:32;;;;;;;30.38;27.38;;;;;;;19.07;51.14;101198.66;3616497;39;20055;-65
2023/05/15 09:31:04;;;;;;;27.83;24.95;;;;;;;19.12;51.91;101242.69;3615779;39;20050;-66
2023/05/15 09:33:36;;;;;;;29.10;25.98;;;;;;;18.94;52.08;101237.06;3614806;39;20054;-65
2023/05/15 09:36:05;;;;;;;28.85;25.83;;;;;;;18.88;53.23;101244.94;3614718;39;20336;-65
2023/05/15 09:38:48;;;;;;;28.80;25.20;;;;;;;18.65;52.68;101222.44;3613250;39;20370;-65
2023/05/15 09:41:23;;;;;;;;;;;;;;;18.62;54.12;101242.66;3616060;39;20062;-65
2023/05/15 09:43:48;;;;;;;28.83;25.88;;;;;;;18.44;53.98;101245.16;3614385;39;19966;-65
2023/05/15 09:46:16;;;;;;;30.23;26.95;;;;;;;18.32;54.26;101248.94;3614596;39;20417;-66
2023/05/15 09:48:42;;;;;;;28.58;25.67;;;;;;;18.28;55.39;101242.91;3616596;39;20043;-66
2023/05/15 09:51:16;;;;;;;28.42;25.42;;;;;;;18.21;54.95;101241.75;3614152;39;20096;-66
2023/05/15 09:53:50;;;;;;;30.27;27.17;;;;;;;18.14;55.78;101242.41;3614677;39;20158;-64
2023/05/15 09:56:17;;;;;;;29.73;26.52;;;;;;;18.01;55.72;101248.91;3613213;39;20055;-65
2023/05/15 09:58:54;;;;;;;30.15;26.98;;;;;;;17.90;55.86;101243.53;3613685;39;20288;-64
2023/05/15 10:01:21;;;;;;;30.38;26.98;;;;;;;17.79;56.73;101249.91;3615396;39;20054;-65
2023/05/15 10:04:03;;;;;;;28.67;25.77;;;;;;;17.74;56.76;101246.69;3615048;39;20096;-65
2023/05/15 10:06:46;;;;;;;29.67;26.67;;;;;;;17.65;57.52;101250.19;3615716;39;20369;-65
2023/05/15 10:09:14;;;;;;;32.17;26.33;;;;;;;17.60;57.30;101247.88;3614869;39;20061;-65
2023/05/15 10:11:43;;;;;;;30.73;26.73;;;;;;;17.65;58.16;101250.19;3614107;39;20062;-65
2023/05/15 10:14:12;;;;;;;28.55;25.40;;;;;;;17.70;57.25;101252.53;3612887;39;20400;-65
2023/05/15 10:16:40;;;;;;;29.42;26.23;;;;;;;17.66;56.97;101245.59;3615800;39;20087;-65
2023/05/15 10:19:09;;;;;;;27.58;24.67;;;;;;;17.67;58.46;101247.34;3613868;39;20123;-64
2023/05/15 10:21:39;;;;;;;26.98;24.25;;;;;;;17.74;57.26;101257.56;3617335;39;20054;-65
2023/05/15 10:24:06;;;;;;;28.38;25.35;;;;;;;17.79;57.31;101251.75;3617367;39;20063;-65
2023/05/15 10:26:41;;;;;;;25.88;23.30;;;;;;;17.57;56.68;101230.91;3617643;39;20084;-65
2023/05/15 10:29:16;;;;;;;26.08;23.38;;;;;;;17.70;57.04;101258.81;3616825;39;20065;-68
2023/05/15 10:31:42;;;;;;;25.33;22.77;;;;;;;17.62;57.72;101247.72;3614616;39;20055;-65
2023/05/15 10:34:10;;;;;;;26.88;24.13;;;;;;;17.67;58.03;101261.78;3615486;39;20046;-66
2023/05/15 10:36:38;;;;;;;25.40;22.80;;;;;;;17.64;59.24;101249.31;3612605;39;20427;-65
2023/05/15 10:39:06;;;;;;;24.92;21.50;;;;;;;17.54;58.83;101242.09;3614995;39;20131;-66
2023/05/15 10:41:37;;;;;;;24.92;22.10;;;;;;;17.30;58.59;101213.25;3621411;39;20404;-65
2023/05/15 10:44:03;;;;;;;26.23;22.17;;;;;;;17.58;58.69;101246.25;3618909;39;20155;-66
2023/05/15 10:46:34;;;;;;;26.25;23.27;;;;;;;17.62;59.75;101255.88;3617741;39;20073;-66
2023/05/15 10:49:00;;;;;;;26.10;23.50;;;;;;;17.58;58.60;101259.84;3615228;39;20054;-64
2023/05/15 10:51:32;;;;;;;27.08;23.95;;;;;;;17.33;58.36;101223.84;3614616;39;20127;-65
2023/05/15 10:54:02;;;;;;;25.75;23.02;;;;;;;17.48;58.45;101254.34;3615885;39;20492;-66
2023/05/15 10:56:35;;;;;;;24.52;21.65;;;;;;;17.49;58.72;101249.75;3617669;39;20043;-66
2023/05/15 10:59:10;;;;;;;25.13;22.55;;;;;;;17.50;58.96;101254.19;3616762;39;20047;-66
2023/05/15 11:01:38;;;;;;;25.88;23.20;;;;;;;17.56;58.53;101256.38;3620402;39;20058;-65
2023/05/15 11:04:16;;;;;;;26.15;23.55;;;;;;;17.50;58.52;101252.31;3617946;39;20380;-65
2023/05/15 11:06:45;;;;;;;26.63;24.02;;;;;;;17.48;59.47;101254.34;3617871;39;20053;-65
2023/05/15 11:09:20;;;;;;;26.73;23.85;;;;;;;17.48;59.63;101253.47;3615498;39;20360;-64
2023/05/15 11:12:04;;;;;;;26.27;23.48;;;;;;;17.49;60.75;101255.19;3613803;39;20055;-65
2023/05/15 11:14:34;;;;;;;28.55;25.73;;;;;;;17.24;59.87;101224.63;3616527;39;20416;-66
2023/05/15 11:17:04;;;;;;;27.75;24.95;;;;;;;17.30;60.93;101255.88;3614461;39;20625;-66